ZKJSP NZAR-NZSD
Flight info
| Callsign | ZKJSP |
|---|---|
| Flight time | 1h 40m |
| Altitude | 2500 |
| Route | PORT WAIKATO RAGLAN URUNUI |
| Aircraft | C172/L-VGD/N |
Departure
| Time | 2026-04-18 21:46 |
|---|---|
| Airport | Ardmore Airport (NZAR) |
Arrival
| Time | 2026-04-18 23:26 |
|---|---|
| Airport | Stratford Airport (NZSD) |
| Time | Latitude | Longitude | Altitude | Speed | Heading |
|---|---|---|---|---|---|
| 2026-04-18 21:33 | -37.03406 | 174.97292 | 108 ft | 0 kts | 235° |
| 2026-04-18 21:38 | -37.03407 | 174.97270 | 109 ft | 6 kts | 275° |
| 2026-04-18 21:38 | -37.03397 | 174.97228 | 109 ft | 6 kts | 346° |
| 2026-04-18 21:38 | -37.03371 | 174.97250 | 109 ft | 5 kts | 46° |
| 2026-04-18 21:39 | -37.03339 | 174.97290 | 109 ft | 6 kts | 43° |
| 2026-04-18 21:39 | -37.03300 | 174.97307 | 109 ft | 9 kts | 319° |
| 2026-04-18 21:39 | -37.03329 | 174.97239 | 109 ft | 11 kts | 225° |
| 2026-04-18 21:39 | -37.03384 | 174.97170 | 109 ft | 13 kts | 225° |
| 2026-04-18 21:40 | -37.03454 | 174.97080 | 109 ft | 15 kts | 225° |
| 2026-04-18 21:40 | -37.03521 | 174.96995 | 109 ft | 12 kts | 223° |
| 2026-04-18 21:40 | -37.03531 | 174.96964 | 109 ft | 4 kts | 33° |
| 2026-04-18 21:40 | -37.03527 | 174.96969 | 109 ft | 0 kts | 43° |
| 2026-04-18 21:42 | -37.03526 | 174.96979 | 109 ft | 4 kts | 127° |
| 2026-04-18 21:42 | -37.03556 | 174.96947 | 110 ft | 8 kts | 269° |
| 2026-04-18 21:43 | -37.03551 | 174.96935 | 110 ft | 0 kts | 308° |
| 2026-04-18 21:45 | -37.03545 | 174.96927 | 110 ft | 4 kts | 311° |
| 2026-04-18 21:45 | -37.03516 | 174.96902 | 110 ft | 5 kts | 15° |
| 2026-04-18 21:45 | -37.03509 | 174.96909 | 110 ft | 0 kts | 48° |
| 2026-04-18 21:45 | -37.03508 | 174.96910 | 110 ft | 4 kts | 48° |
| 2026-04-18 21:46 | -37.03352 | 174.97110 | 111 ft | 59 kts | 46° |
| 2026-04-18 21:46 | -37.03016 | 174.97539 | 266 ft | 73 kts | 45° |
| 2026-04-18 21:46 | -37.02660 | 174.97993 | 520 ft | 73 kts | 41° |
| 2026-04-18 21:46 | -37.02423 | 174.98543 | 739 ft | 83 kts | 101° |
| 2026-04-18 21:47 | -37.02806 | 174.99135 | 887 ft | 94 kts | 136° |
| 2026-04-18 21:47 | -37.03376 | 174.99514 | 1023 ft | 104 kts | 198° |
| 2026-04-18 21:47 | -37.03870 | 174.98901 | 1007 ft | 102 kts | 240° |
| 2026-04-18 21:47 | -37.04251 | 174.98152 | 1003 ft | 102 kts | 243° |
| 2026-04-18 21:48 | -37.04594 | 174.97393 | 991 ft | 100 kts | 245° |
| 2026-04-18 21:48 | -37.04918 | 174.96616 | 1009 ft | 101 kts | 248° |
| 2026-04-18 21:48 | -37.05214 | 174.95800 | 1012 ft | 105 kts | 250° |
| 2026-04-18 21:48 | -37.05542 | 174.94975 | 1018 ft | 108 kts | 236° |
| 2026-04-18 21:49 | -37.06135 | 174.94362 | 1015 ft | 112 kts | 218° |
| 2026-04-18 21:49 | -37.06779 | 174.93809 | 1014 ft | 112 kts | 217° |
| 2026-04-18 21:49 | -37.07413 | 174.93269 | 1013 ft | 108 kts | 218° |
| 2026-04-18 21:49 | -37.08039 | 174.92746 | 1014 ft | 108 kts | 218° |
| 2026-04-18 21:50 | -37.08652 | 174.92211 | 1029 ft | 108 kts | 219° |
| 2026-04-18 21:50 | -37.09280 | 174.91699 | 1030 ft | 110 kts | 216° |
| 2026-04-18 21:50 | -37.09913 | 174.91184 | 1035 ft | 107 kts | 216° |
| 2026-04-18 21:50 | -37.10538 | 174.90690 | 1032 ft | 106 kts | 218° |
| 2026-04-18 21:51 | -37.11149 | 174.90181 | 1027 ft | 106 kts | 218° |
| 2026-04-18 21:51 | -37.11758 | 174.89669 | 1034 ft | 106 kts | 218° |
| 2026-04-18 21:51 | -37.12381 | 174.89149 | 1051 ft | 108 kts | 218° |
| 2026-04-18 21:51 | -37.12995 | 174.88608 | 1067 ft | 107 kts | 221° |
| 2026-04-18 21:52 | -37.13605 | 174.88065 | 1071 ft | 108 kts | 217° |
| 2026-04-18 21:52 | -37.14238 | 174.87540 | 1083 ft | 110 kts | 218° |
| 2026-04-18 21:52 | -37.14866 | 174.87000 | 1087 ft | 111 kts | 218° |
| 2026-04-18 21:52 | -37.15498 | 174.86458 | 1079 ft | 111 kts | 217° |
| 2026-04-18 21:53 | -37.16138 | 174.85924 | 1091 ft | 109 kts | 218° |
| 2026-04-18 21:53 | -37.16787 | 174.85426 | 1111 ft | 110 kts | 213° |
| 2026-04-18 21:53 | -37.17461 | 174.84944 | 1118 ft | 113 kts | 214° |
| 2026-04-18 21:53 | -37.18138 | 174.84438 | 1116 ft | 113 kts | 216° |
| 2026-04-18 21:54 | -37.18797 | 174.83914 | 1104 ft | 111 kts | 216° |
| 2026-04-18 21:54 | -37.19437 | 174.83401 | 1125 ft | 111 kts | 216° |
| 2026-04-18 21:54 | -37.20088 | 174.82877 | 1117 ft | 112 kts | 217° |
| 2026-04-18 21:54 | -37.20758 | 174.82382 | 1117 ft | 111 kts | 215° |
| 2026-04-18 21:55 | -37.21423 | 174.81894 | 1130 ft | 111 kts | 214° |
| 2026-04-18 21:55 | -37.22095 | 174.81409 | 1152 ft | 111 kts | 214° |
| 2026-04-18 21:55 | -37.22782 | 174.80951 | 1156 ft | 112 kts | 212° |
| 2026-04-18 21:55 | -37.23472 | 174.80494 | 1166 ft | 111 kts | 213° |
| 2026-04-18 21:56 | -37.24155 | 174.80030 | 1166 ft | 112 kts | 213° |
| 2026-04-18 21:56 | -37.24842 | 174.79575 | 1167 ft | 112 kts | 211° |
| 2026-04-18 21:56 | -37.25533 | 174.79153 | 1183 ft | 113 kts | 210° |
| 2026-04-18 21:56 | -37.26241 | 174.78742 | 1152 ft | 111 kts | 210° |
| 2026-04-18 21:57 | -37.26939 | 174.78344 | 1157 ft | 110 kts | 209° |
| 2026-04-18 21:57 | -37.27629 | 174.77941 | 1152 ft | 109 kts | 210° |
| 2026-04-18 21:57 | -37.28314 | 174.77512 | 1164 ft | 110 kts | 212° |
| 2026-04-18 21:57 | -37.29001 | 174.77073 | 1175 ft | 111 kts | 211° |
| 2026-04-18 21:58 | -37.29686 | 174.76633 | 1201 ft | 111 kts | 211° |
| 2026-04-18 21:58 | -37.30386 | 174.76199 | 1220 ft | 112 kts | 211° |
| 2026-04-18 21:58 | -37.31071 | 174.75773 | 1220 ft | 110 kts | 212° |
| 2026-04-18 21:58 | -37.31752 | 174.75332 | 1232 ft | 111 kts | 213° |
| 2026-04-18 21:59 | -37.32429 | 174.74864 | 1220 ft | 111 kts | 214° |
| 2026-04-18 21:59 | -37.33096 | 174.74377 | 1234 ft | 111 kts | 215° |
| 2026-04-18 21:59 | -37.33766 | 174.73894 | 1251 ft | 111 kts | 214° |
| 2026-04-18 21:59 | -37.34448 | 174.73417 | 1268 ft | 113 kts | 213° |
| 2026-04-18 22:00 | -37.35148 | 174.72951 | 1268 ft | 114 kts | 212° |
| 2026-04-18 22:00 | -37.35849 | 174.72489 | 1265 ft | 114 kts | 213° |
| 2026-04-18 22:00 | -37.36537 | 174.72018 | 1279 ft | 114 kts | 213° |
| 2026-04-18 22:00 | -37.37223 | 174.71535 | 1271 ft | 112 kts | 214° |
| 2026-04-18 22:01 | -37.37890 | 174.71037 | 1268 ft | 111 kts | 215° |
| 2026-04-18 22:01 | -37.38561 | 174.70555 | 1284 ft | 112 kts | 210° |
| 2026-04-18 22:01 | -37.39264 | 174.70123 | 1281 ft | 112 kts | 211° |
| 2026-04-18 22:01 | -37.39995 | 174.69799 | 1267 ft | 113 kts | 196° |
| 2026-04-18 22:02 | -37.40782 | 174.69696 | 1275 ft | 115 kts | 182° |
| 2026-04-18 22:02 | -37.41312 | 174.69734 | 1288 ft | 116 kts | 178° |
| 2026-04-18 22:02 | -37.42108 | 174.69880 | 1304 ft | 116 kts | 172° |
| 2026-04-18 22:02 | -37.43143 | 174.70229 | 1324 ft | 116 kts | 165° |
| 2026-04-18 22:03 | -37.43925 | 174.70564 | 1339 ft | 121 kts | 161° |
| 2026-04-18 22:03 | -37.44708 | 174.70966 | 1337 ft | 121 kts | 164° |
| 2026-04-18 22:03 | -37.45490 | 174.71325 | 1334 ft | 118 kts | 164° |
| 2026-04-18 22:03 | -37.46254 | 174.71686 | 1329 ft | 117 kts | 163° |
| 2026-04-18 22:04 | -37.46756 | 174.71931 | 1328 ft | 117 kts | 163° |
| 2026-04-18 22:04 | -37.47516 | 174.72309 | 1333 ft | 117 kts | 161° |
| 2026-04-18 22:04 | -37.48270 | 174.72672 | 1341 ft | 115 kts | 162° |
| 2026-04-18 22:04 | -37.49263 | 174.73111 | 1353 ft | 114 kts | 165° |
| 2026-04-18 22:05 | -37.49768 | 174.73326 | 1362 ft | 114 kts | 164° |
| 2026-04-18 22:05 | -37.50524 | 174.73654 | 1376 ft | 116 kts | 163° |
| 2026-04-18 22:05 | -37.51276 | 174.73991 | 1389 ft | 116 kts | 163° |
| 2026-04-18 22:05 | -37.52041 | 174.74323 | 1408 ft | 116 kts | 164° |
| 2026-04-18 22:06 | -37.52809 | 174.74657 | 1407 ft | 117 kts | 164° |
| 2026-04-18 22:06 | -37.53575 | 174.75016 | 1439 ft | 117 kts | 164° |
| 2026-04-18 22:06 | -37.54350 | 174.75333 | 1454 ft | 117 kts | 166° |
| 2026-04-18 22:06 | -37.55376 | 174.75718 | 1468 ft | 116 kts | 169° |
| 2026-04-18 22:07 | -37.56154 | 174.75972 | 1470 ft | 116 kts | 170° |
| 2026-04-18 22:07 | -37.56686 | 174.76133 | 1480 ft | 117 kts | 169° |
| 2026-04-18 22:07 | -37.57462 | 174.76388 | 1496 ft | 117 kts | 168° |
| 2026-04-18 22:07 | -37.58249 | 174.76652 | 1500 ft | 117 kts | 169° |
| 2026-04-18 22:08 | -37.59042 | 174.76915 | 1508 ft | 118 kts | 169° |
| 2026-04-18 22:08 | -37.59840 | 174.77186 | 1502 ft | 119 kts | 168° |
| 2026-04-18 22:08 | -37.60642 | 174.77455 | 1509 ft | 119 kts | 168° |
| 2026-04-18 22:08 | -37.61439 | 174.77737 | 1497 ft | 118 kts | 168° |
| 2026-04-18 22:09 | -37.62230 | 174.78012 | 1475 ft | 118 kts | 168° |
| 2026-04-18 22:09 | -37.63011 | 174.78308 | 1489 ft | 116 kts | 167° |
| 2026-04-18 22:09 | -37.63778 | 174.78597 | 1493 ft | 114 kts | 166° |
| 2026-04-18 22:09 | -37.64525 | 174.78881 | 1512 ft | 115 kts | 166° |
| 2026-04-18 22:10 | -37.65302 | 174.79170 | 1518 ft | 118 kts | 167° |
| 2026-04-18 22:10 | -37.66096 | 174.79454 | 1527 ft | 119 kts | 169° |
| 2026-04-18 22:10 | -37.66897 | 174.79732 | 1539 ft | 119 kts | 168° |
| 2026-04-18 22:10 | -37.67702 | 174.79999 | 1546 ft | 120 kts | 169° |
| 2026-04-18 22:11 | -37.68497 | 174.80303 | 1553 ft | 120 kts | 165° |
| 2026-04-18 22:11 | -37.69278 | 174.80653 | 1552 ft | 118 kts | 165° |
| 2026-04-18 22:11 | -37.70063 | 174.80917 | 1519 ft | 118 kts | 171° |
| 2026-04-18 22:11 | -37.70859 | 174.81143 | 1513 ft | 117 kts | 171° |
| 2026-04-18 22:12 | -37.72457 | 174.81587 | 1507 ft | 117 kts | 173° |
| 2026-04-18 22:12 | -37.73259 | 174.81765 | 1495 ft | 117 kts | 174° |
| 2026-04-18 22:12 | -37.74061 | 174.81943 | 1517 ft | 117 kts | 173° |
| 2026-04-18 22:13 | -37.74860 | 174.82128 | 1484 ft | 112 kts | 172° |
| 2026-04-18 22:13 | -37.75584 | 174.82333 | 1362 ft | 101 kts | 171° |
| 2026-04-18 22:13 | -37.76251 | 174.82532 | 1216 ft | 96 kts | 170° |
| 2026-04-18 22:13 | -37.76903 | 174.82731 | 1101 ft | 97 kts | 169° |
| 2026-04-18 22:14 | -37.77557 | 174.82919 | 995 ft | 99 kts | 172° |
| 2026-04-18 22:14 | -37.78228 | 174.83104 | 958 ft | 98 kts | 171° |
| 2026-04-18 22:14 | -37.78893 | 174.83298 | 882 ft | 100 kts | 172° |
| 2026-04-18 22:14 | -37.79506 | 174.83681 | 762 ft | 97 kts | 145° |
| 2026-04-18 22:15 | -37.79981 | 174.84110 | 595 ft | 73 kts | 145° |
| 2026-04-18 22:15 | -37.80381 | 174.84488 | 431 ft | 70 kts | 144° |
| 2026-04-18 22:15 | -37.80685 | 174.84940 | 218 ft | 67 kts | 101° |
| 2026-04-18 22:15 | -37.80633 | 174.85496 | 54 ft | 64 kts | 65° |
| 2026-04-18 22:16 | -37.80505 | 174.85939 | 15 ft | 43 kts | 71° |
| 2026-04-18 22:16 | -37.80415 | 174.86228 | 15 ft | 17 kts | 51° |
| 2026-04-18 22:16 | -37.80397 | 174.86207 | 15 ft | 8 kts | 284° |
| 2026-04-18 22:16 | -37.80393 | 174.86153 | 15 ft | 2 kts | 203° |
| 2026-04-18 22:32 | -37.80400 | 174.86157 | 12 ft | 4 kts | 103° |
| 2026-04-18 22:32 | -37.80426 | 174.86205 | 15 ft | 10 kts | 184° |
| 2026-04-18 22:32 | -37.80438 | 174.86186 | 15 ft | 0 kts | 250° |
| 2026-04-18 22:33 | -37.80514 | 174.85931 | 15 ft | 58 kts | 250° |
| 2026-04-18 22:33 | -37.80665 | 174.85390 | 177 ft | 69 kts | 259° |
| 2026-04-18 22:33 | -37.80786 | 174.84812 | 394 ft | 70 kts | 260° |
| 2026-04-18 22:34 | -37.80945 | 174.84172 | 612 ft | 80 kts | 256° |
| 2026-04-18 22:34 | -37.81117 | 174.83497 | 852 ft | 84 kts | 258° |
| 2026-04-18 22:34 | -37.81277 | 174.82753 | 1065 ft | 90 kts | 261° |
| 2026-04-18 22:34 | -37.81432 | 174.81988 | 1323 ft | 89 kts | 257° |
| 2026-04-18 22:35 | -37.81596 | 174.81246 | 1585 ft | 87 kts | 259° |
| 2026-04-18 22:35 | -37.81738 | 174.80493 | 1818 ft | 89 kts | 262° |
| 2026-04-18 22:35 | -37.81875 | 174.79721 | 2044 ft | 90 kts | 261° |
| 2026-04-18 22:35 | -37.82033 | 174.78970 | 2288 ft | 90 kts | 257° |
| 2026-04-18 22:36 | -37.82242 | 174.78212 | 2480 ft | 94 kts | 247° |
| 2026-04-18 22:36 | -37.82709 | 174.77544 | 2480 ft | 106 kts | 227° |
| 2026-04-18 22:36 | -37.83270 | 174.76909 | 2482 ft | 110 kts | 225° |
| 2026-04-18 22:36 | -37.83905 | 174.76348 | 2489 ft | 113 kts | 214° |
| 2026-04-18 22:37 | -37.84611 | 174.75915 | 2494 ft | 113 kts | 205° |
| 2026-04-18 22:37 | -37.85370 | 174.75643 | 2510 ft | 114 kts | 195° |
| 2026-04-18 22:37 | -37.86156 | 174.75477 | 2520 ft | 115 kts | 191° |
| 2026-04-18 22:37 | -37.86956 | 174.75378 | 2532 ft | 115 kts | 189° |
| 2026-04-18 22:38 | -37.87744 | 174.75277 | 2541 ft | 115 kts | 188° |
| 2026-04-18 22:38 | -37.88544 | 174.75239 | 2551 ft | 115 kts | 185° |
| 2026-04-18 22:38 | -37.89343 | 174.75218 | 2565 ft | 115 kts | 182° |
| 2026-04-18 22:38 | -37.90146 | 174.75297 | 2570 ft | 116 kts | 174° |
| 2026-04-18 22:39 | -37.90945 | 174.75462 | 2577 ft | 117 kts | 174° |
| 2026-04-18 22:39 | -37.91746 | 174.75616 | 2587 ft | 116 kts | 175° |
| 2026-04-18 22:39 | -37.92549 | 174.75759 | 2593 ft | 117 kts | 175° |
| 2026-04-18 22:39 | -37.93343 | 174.75874 | 2606 ft | 117 kts | 176° |
| 2026-04-18 22:40 | -37.94151 | 174.75985 | 2605 ft | 117 kts | 177° |
| 2026-04-18 22:40 | -37.94955 | 174.76079 | 2609 ft | 116 kts | 178° |
| 2026-04-18 22:40 | -37.95755 | 174.76188 | 2615 ft | 115 kts | 176° |
| 2026-04-18 22:40 | -37.96558 | 174.76297 | 2622 ft | 116 kts | 178° |
| 2026-04-18 22:41 | -37.97367 | 174.76389 | 2632 ft | 117 kts | 178° |
| 2026-04-18 22:41 | -37.98177 | 174.76475 | 2637 ft | 116 kts | 179° |
| 2026-04-18 22:41 | -37.98981 | 174.76536 | 2637 ft | 116 kts | 182° |
| 2026-04-18 22:41 | -37.99785 | 174.76544 | 2652 ft | 115 kts | 184° |
| 2026-04-18 22:42 | -38.00572 | 174.76498 | 2659 ft | 114 kts | 189° |
| 2026-04-18 22:42 | -38.01357 | 174.76361 | 2670 ft | 114 kts | 191° |
| 2026-04-18 22:42 | -38.02140 | 174.76213 | 2676 ft | 114 kts | 192° |
| 2026-04-18 22:42 | -38.02928 | 174.76068 | 2680 ft | 115 kts | 193° |
| 2026-04-18 22:43 | -38.03714 | 174.75924 | 2705 ft | 114 kts | 191° |
| 2026-04-18 22:43 | -38.04495 | 174.75754 | 2710 ft | 114 kts | 194° |
| 2026-04-18 22:43 | -38.05272 | 174.75546 | 2714 ft | 114 kts | 196° |
| 2026-04-18 22:43 | -38.06043 | 174.75329 | 2723 ft | 113 kts | 197° |
| 2026-04-18 22:44 | -38.06802 | 174.75113 | 2735 ft | 113 kts | 196° |
| 2026-04-18 22:44 | -38.07579 | 174.74903 | 2739 ft | 115 kts | 197° |
| 2026-04-18 22:44 | -38.08355 | 174.74652 | 2755 ft | 115 kts | 198° |
| 2026-04-18 22:44 | -38.09135 | 174.74377 | 2763 ft | 117 kts | 200° |
| 2026-04-18 22:45 | -38.09914 | 174.74066 | 2761 ft | 117 kts | 201° |
| 2026-04-18 22:45 | -38.10692 | 174.73751 | 2760 ft | 117 kts | 201° |
| 2026-04-18 22:45 | -38.11461 | 174.73428 | 2766 ft | 116 kts | 203° |
| 2026-04-18 22:45 | -38.12224 | 174.73090 | 2782 ft | 115 kts | 204° |
| 2026-04-18 22:46 | -38.12984 | 174.72784 | 2825 ft | 120 kts | 199° |
| 2026-04-18 22:46 | -38.13801 | 174.72527 | 2786 ft | 121 kts | 195° |
| 2026-04-18 22:46 | -38.14622 | 174.72308 | 2723 ft | 121 kts | 195° |
| 2026-04-18 22:46 | -38.15457 | 174.72079 | 2620 ft | 125 kts | 195° |
| 2026-04-18 22:47 | -38.16305 | 174.71876 | 2557 ft | 124 kts | 193° |
| 2026-04-18 22:47 | -38.17157 | 174.71691 | 2498 ft | 124 kts | 193° |
| 2026-04-18 22:47 | -38.17995 | 174.71502 | 2495 ft | 121 kts | 193° |
| 2026-04-18 22:47 | -38.18807 | 174.71329 | 2510 ft | 118 kts | 192° |
| 2026-04-18 22:48 | -38.19609 | 174.71160 | 2511 ft | 119 kts | 192° |
| 2026-04-18 22:48 | -38.20435 | 174.70994 | 2500 ft | 120 kts | 192° |
| 2026-04-18 22:48 | -38.21252 | 174.70832 | 2477 ft | 118 kts | 191° |
| 2026-04-18 22:48 | -38.22051 | 174.70673 | 2494 ft | 116 kts | 192° |
| 2026-04-18 22:49 | -38.22853 | 174.70517 | 2516 ft | 118 kts | 192° |
| 2026-04-18 22:49 | -38.23668 | 174.70363 | 2528 ft | 119 kts | 191° |
| 2026-04-18 22:49 | -38.24490 | 174.70215 | 2528 ft | 120 kts | 191° |
| 2026-04-18 22:49 | -38.25315 | 174.70067 | 2517 ft | 120 kts | 192° |
| 2026-04-18 22:50 | -38.26141 | 174.69907 | 2514 ft | 120 kts | 192° |
| 2026-04-18 22:50 | -38.26966 | 174.69756 | 2532 ft | 119 kts | 189° |
| 2026-04-18 22:50 | -38.27783 | 174.69655 | 2547 ft | 119 kts | 188° |
| 2026-04-18 22:50 | -38.28596 | 174.69474 | 2557 ft | 119 kts | 193° |
| 2026-04-18 22:51 | -38.29407 | 174.69276 | 2571 ft | 118 kts | 196° |
| 2026-04-18 22:51 | -38.30211 | 174.69038 | 2573 ft | 119 kts | 197° |
| 2026-04-18 22:51 | -38.31009 | 174.68761 | 2561 ft | 119 kts | 202° |
| 2026-04-18 22:51 | -38.31811 | 174.68495 | 2572 ft | 118 kts | 199° |
| 2026-04-18 22:52 | -38.32600 | 174.68202 | 2585 ft | 118 kts | 201° |
| 2026-04-18 22:52 | -38.33387 | 174.67891 | 2592 ft | 119 kts | 201° |
| 2026-04-18 22:52 | -38.34158 | 174.67546 | 2592 ft | 119 kts | 204° |
| 2026-04-18 22:52 | -38.34927 | 174.67153 | 2588 ft | 119 kts | 206° |
| 2026-04-18 22:53 | -38.35680 | 174.66739 | 2607 ft | 118 kts | 208° |
| 2026-04-18 22:53 | -38.36445 | 174.66331 | 2624 ft | 120 kts | 209° |
| 2026-04-18 22:53 | -38.37214 | 174.65888 | 2625 ft | 122 kts | 210° |
| 2026-04-18 22:53 | -38.37990 | 174.65456 | 2627 ft | 120 kts | 208° |
| 2026-04-18 22:54 | -38.38779 | 174.65093 | 2637 ft | 122 kts | 199° |
| 2026-04-18 22:54 | -38.39630 | 174.64931 | 2614 ft | 123 kts | 189° |
| 2026-04-18 22:54 | -38.40466 | 174.64841 | 2595 ft | 122 kts | 189° |
| 2026-04-18 22:54 | -38.41319 | 174.64738 | 2615 ft | 124 kts | 191° |
| 2026-04-18 22:55 | -38.42178 | 174.64602 | 2623 ft | 124 kts | 193° |
| 2026-04-18 22:55 | -38.43024 | 174.64425 | 2640 ft | 124 kts | 192° |
| 2026-04-18 22:55 | -38.43882 | 174.64276 | 2654 ft | 126 kts | 191° |
| 2026-04-18 22:55 | -38.44757 | 174.64144 | 2660 ft | 128 kts | 190° |
| 2026-04-18 22:56 | -38.45649 | 174.64067 | 2662 ft | 128 kts | 189° |
| 2026-04-18 22:56 | -38.46527 | 174.63976 | 2651 ft | 126 kts | 189° |
| 2026-04-18 22:56 | -38.47380 | 174.63879 | 2650 ft | 124 kts | 190° |
| 2026-04-18 22:56 | -38.48240 | 174.63790 | 2671 ft | 124 kts | 188° |
| 2026-04-18 22:57 | -38.49116 | 174.63705 | 2680 ft | 127 kts | 188° |
| 2026-04-18 22:57 | -38.49997 | 174.63604 | 2684 ft | 130 kts | 189° |
| 2026-04-18 22:57 | -38.50897 | 174.63500 | 2684 ft | 129 kts | 188° |
| 2026-04-18 22:57 | -38.51794 | 174.63402 | 2686 ft | 130 kts | 189° |
| 2026-04-18 22:58 | -38.52689 | 174.63280 | 2683 ft | 129 kts | 191° |
| 2026-04-18 22:58 | -38.53578 | 174.63141 | 2664 ft | 129 kts | 190° |
| 2026-04-18 22:58 | -38.54450 | 174.63036 | 2658 ft | 126 kts | 190° |
| 2026-04-18 22:58 | -38.55314 | 174.62916 | 2653 ft | 125 kts | 190° |
| 2026-04-18 22:59 | -38.56173 | 174.62805 | 2656 ft | 123 kts | 191° |
| 2026-04-18 22:59 | -38.57025 | 174.62672 | 2652 ft | 123 kts | 192° |
| 2026-04-18 22:59 | -38.57868 | 174.62526 | 2656 ft | 122 kts | 191° |
| 2026-04-18 22:59 | -38.58722 | 174.62390 | 2643 ft | 124 kts | 191° |
| 2026-04-18 23:00 | -38.59584 | 174.62267 | 2638 ft | 127 kts | 189° |
| 2026-04-18 23:00 | -38.60456 | 174.62142 | 2650 ft | 126 kts | 191° |
| 2026-04-18 23:00 | -38.61331 | 174.62009 | 2658 ft | 127 kts | 189° |
| 2026-04-18 23:00 | -38.62196 | 174.61878 | 2683 ft | 126 kts | 191° |
| 2026-04-18 23:01 | -38.63062 | 174.61725 | 2674 ft | 127 kts | 190° |
| 2026-04-18 23:01 | -38.63930 | 174.61625 | 2670 ft | 127 kts | 187° |
| 2026-04-18 23:01 | -38.64811 | 174.61554 | 2673 ft | 126 kts | 188° |
| 2026-04-18 23:01 | -38.65680 | 174.61482 | 2684 ft | 124 kts | 187° |
| 2026-04-18 23:02 | -38.66544 | 174.61427 | 2683 ft | 124 kts | 186° |
| 2026-04-18 23:02 | -38.67407 | 174.61383 | 2686 ft | 124 kts | 185° |
| 2026-04-18 23:02 | -38.68280 | 174.61329 | 2669 ft | 126 kts | 188° |
| 2026-04-18 23:02 | -38.69134 | 174.61251 | 2675 ft | 125 kts | 189° |
| 2026-04-18 23:03 | -38.69997 | 174.61147 | 2688 ft | 124 kts | 189° |
| 2026-04-18 23:03 | -38.70852 | 174.61038 | 2691 ft | 124 kts | 189° |
| 2026-04-18 23:03 | -38.71716 | 174.60936 | 2702 ft | 125 kts | 190° |
| 2026-04-18 23:03 | -38.72592 | 174.60788 | 2666 ft | 128 kts | 193° |
| 2026-04-18 23:04 | -38.73462 | 174.60610 | 2648 ft | 127 kts | 193° |
| 2026-04-18 23:04 | -38.74336 | 174.60437 | 2633 ft | 127 kts | 194° |
| 2026-04-18 23:04 | -38.75201 | 174.60231 | 2629 ft | 126 kts | 196° |
| 2026-04-18 23:04 | -38.76052 | 174.59989 | 2640 ft | 124 kts | 198° |
| 2026-04-18 23:05 | -38.76894 | 174.59742 | 2648 ft | 124 kts | 196° |
| 2026-04-18 23:05 | -38.77720 | 174.59516 | 2649 ft | 123 kts | 195° |
| 2026-04-18 23:05 | -38.78558 | 174.59293 | 2661 ft | 123 kts | 196° |
| 2026-04-18 23:05 | -38.79390 | 174.59027 | 2701 ft | 122 kts | 199° |
| 2026-04-18 23:06 | -38.80215 | 174.58688 | 2667 ft | 126 kts | 203° |
| 2026-04-18 23:06 | -38.81044 | 174.58336 | 2672 ft | 125 kts | 201° |
| 2026-04-18 23:06 | -38.81860 | 174.57959 | 2680 ft | 125 kts | 205° |
| 2026-04-18 23:06 | -38.82664 | 174.57531 | 2692 ft | 125 kts | 210° |
| 2026-04-18 23:07 | -38.83424 | 174.57000 | 2709 ft | 125 kts | 216° |
| 2026-04-18 23:07 | -38.84151 | 174.56425 | 2724 ft | 124 kts | 218° |
| 2026-04-18 23:07 | -38.84862 | 174.55820 | 2726 ft | 122 kts | 220° |
| 2026-04-18 23:07 | -38.85545 | 174.55174 | 2705 ft | 122 kts | 224° |
| 2026-04-18 23:08 | -38.86199 | 174.54496 | 2704 ft | 120 kts | 225° |
| 2026-04-18 23:08 | -38.86852 | 174.53831 | 2706 ft | 119 kts | 224° |
| 2026-04-18 23:08 | -38.87500 | 174.53172 | 2721 ft | 118 kts | 224° |
| 2026-04-18 23:08 | -38.88159 | 174.52547 | 2690 ft | 117 kts | 221° |
| 2026-04-18 23:09 | -38.88804 | 174.51947 | 2650 ft | 116 kts | 224° |
| 2026-04-18 23:09 | -38.89441 | 174.51303 | 2605 ft | 117 kts | 225° |
| 2026-04-18 23:09 | -38.90075 | 174.50645 | 2544 ft | 118 kts | 224° |
| 2026-04-18 23:09 | -38.90718 | 174.49968 | 2466 ft | 120 kts | 224° |
| 2026-04-18 23:10 | -38.91371 | 174.49279 | 2374 ft | 122 kts | 224° |
| 2026-04-18 23:10 | -38.92034 | 174.48594 | 2297 ft | 123 kts | 224° |
| 2026-04-18 23:10 | -38.92678 | 174.47892 | 2233 ft | 121 kts | 226° |
| 2026-04-18 23:10 | -38.93286 | 174.47185 | 2218 ft | 115 kts | 228° |
| 2026-04-18 23:11 | -38.93882 | 174.46481 | 2142 ft | 117 kts | 228° |
| 2026-04-18 23:11 | -38.94473 | 174.45786 | 2064 ft | 117 kts | 227° |
| 2026-04-18 23:11 | -38.95074 | 174.45076 | 2009 ft | 117 kts | 229° |
| 2026-04-18 23:11 | -38.95674 | 174.44351 | 2009 ft | 118 kts | 230° |
| 2026-04-18 23:12 | -38.96229 | 174.43579 | 2022 ft | 119 kts | 234° |
| 2026-04-18 23:12 | -38.96759 | 174.42766 | 2025 ft | 119 kts | 237° |
| 2026-04-18 23:12 | -38.97266 | 174.41922 | 2032 ft | 120 kts | 239° |
| 2026-04-18 23:12 | -38.97760 | 174.41054 | 2040 ft | 121 kts | 240° |
| 2026-04-18 23:13 | -38.98272 | 174.40176 | 2011 ft | 123 kts | 239° |
| 2026-04-18 23:13 | -38.98770 | 174.39295 | 1989 ft | 124 kts | 240° |
| 2026-04-18 23:13 | -38.99298 | 174.38433 | 1995 ft | 123 kts | 228° |
| 2026-04-18 23:13 | -39.00038 | 174.37876 | 2000 ft | 125 kts | 201° |
| 2026-04-18 23:14 | -39.00904 | 174.37712 | 2011 ft | 126 kts | 188° |
| 2026-04-18 23:14 | -39.01774 | 174.37580 | 2022 ft | 126 kts | 192° |
| 2026-04-18 23:14 | -39.02650 | 174.37410 | 2008 ft | 128 kts | 188° |
| 2026-04-18 23:14 | -39.03523 | 174.37304 | 2005 ft | 126 kts | 187° |
| 2026-04-18 23:15 | -39.04410 | 174.37359 | 2011 ft | 130 kts | 175° |
| 2026-04-18 23:15 | -39.05314 | 174.37490 | 2023 ft | 131 kts | 175° |
| 2026-04-18 23:15 | -39.06211 | 174.37619 | 2019 ft | 132 kts | 174° |
| 2026-04-18 23:15 | -39.07099 | 174.37761 | 2029 ft | 130 kts | 172° |
| 2026-04-18 23:16 | -39.07990 | 174.37925 | 2029 ft | 129 kts | 172° |
| 2026-04-18 23:16 | -39.08881 | 174.38062 | 2054 ft | 129 kts | 174° |
| 2026-04-18 23:16 | -39.09776 | 174.38197 | 2059 ft | 130 kts | 175° |
| 2026-04-18 23:16 | -39.10670 | 174.38311 | 2053 ft | 129 kts | 177° |
| 2026-04-18 23:17 | -39.11555 | 174.38363 | 2083 ft | 125 kts | 182° |
| 2026-04-18 23:17 | -39.12433 | 174.38305 | 2083 ft | 127 kts | 188° |
| 2026-04-18 23:17 | -39.13306 | 174.38212 | 2054 ft | 125 kts | 187° |
| 2026-04-18 23:17 | -39.14149 | 174.38075 | 2066 ft | 124 kts | 192° |
| 2026-04-18 23:18 | -39.14995 | 174.37906 | 2081 ft | 123 kts | 193° |
| 2026-04-18 23:18 | -39.15841 | 174.37719 | 2099 ft | 123 kts | 194° |
| 2026-04-18 23:18 | -39.16693 | 174.37509 | 2119 ft | 126 kts | 197° |
| 2026-04-18 23:18 | -39.17552 | 174.37226 | 2135 ft | 129 kts | 198° |
| 2026-04-18 23:19 | -39.18408 | 174.36919 | 2166 ft | 129 kts | 200° |
| 2026-04-18 23:19 | -39.19276 | 174.36592 | 2161 ft | 129 kts | 200° |
| 2026-04-18 23:19 | -39.20118 | 174.36205 | 2167 ft | 128 kts | 202° |
| 2026-04-18 23:19 | -39.20960 | 174.35822 | 2158 ft | 128 kts | 201° |
| 2026-04-18 23:20 | -39.21804 | 174.35434 | 2156 ft | 129 kts | 202° |
| 2026-04-18 23:20 | -39.22638 | 174.35083 | 2222 ft | 127 kts | 203° |
| 2026-04-18 23:20 | -39.23465 | 174.34719 | 2309 ft | 124 kts | 204° |
| 2026-04-18 23:20 | -39.24295 | 174.34374 | 2342 ft | 126 kts | 202° |
| 2026-04-18 23:21 | -39.25131 | 174.34029 | 2358 ft | 127 kts | 204° |
| 2026-04-18 23:21 | -39.25965 | 174.33657 | 2360 ft | 127 kts | 204° |
| 2026-04-18 23:21 | -39.26788 | 174.33266 | 2385 ft | 126 kts | 207° |
| 2026-04-18 23:21 | -39.27617 | 174.32875 | 2390 ft | 126 kts | 205° |
| 2026-04-18 23:22 | -39.28444 | 174.32510 | 2396 ft | 126 kts | 202° |
| 2026-04-18 23:22 | -39.29293 | 174.32179 | 2377 ft | 128 kts | 197° |
| 2026-04-18 23:22 | -39.30157 | 174.31941 | 2373 ft | 129 kts | 195° |
| 2026-04-18 23:23 | -39.31916 | 174.31507 | 2375 ft | 129 kts | 193° |
| 2026-04-18 23:23 | -39.32746 | 174.31180 | 2312 ft | 120 kts | 227° |
| 2026-04-18 23:23 | -39.32981 | 174.30263 | 2250 ft | 105 kts | 281° |
| 2026-04-18 23:23 | -39.32686 | 174.29497 | 2176 ft | 97 kts | 336° |
| 2026-04-18 23:24 | -39.32031 | 174.29586 | 2030 ft | 104 kts | 23° |
| 2026-04-18 23:24 | -39.31420 | 174.30073 | 1934 ft | 103 kts | 28° |
| 2026-04-18 23:24 | -39.30817 | 174.30598 | 1912 ft | 108 kts | 43° |
| 2026-04-18 23:24 | -39.30800 | 174.31557 | 1887 ft | 122 kts | 113° |
| 2026-04-18 23:25 | -39.31128 | 174.32547 | 1830 ft | 117 kts | 104° |
| 2026-04-18 23:25 | -39.31424 | 174.33467 | 1760 ft | 107 kts | 124° |
| 2026-04-18 23:25 | -39.32100 | 174.33597 | 1647 ft | 101 kts | 206° |
| 2026-04-18 23:25 | -39.32505 | 174.33149 | 1452 ft | 65 kts | 278° |
| 2026-04-18 23:26 | -39.32363 | 174.32645 | 1246 ft | 61 kts | 298° |
| 2026-04-18 23:26 | -39.32197 | 174.32155 | 1160 ft | 57 kts | 302° |
| 2026-04-18 23:26 | -39.32042 | 174.31691 | 1064 ft | 59 kts | 301° |
| 2026-04-18 23:26 | -39.31899 | 174.31224 | 933 ft | 49 kts | 302° |
| 2026-04-18 23:27 | -39.31814 | 174.30949 | 935 ft | 25 kts | 291° |
| 2026-04-18 23:27 | -39.31761 | 174.30774 | 938 ft | 14 kts | 282° |
| 2026-04-18 23:27 | -39.31805 | 174.30712 | 940 ft | 11 kts | 164° |
| 2026-04-18 23:27 | -39.31854 | 174.30680 | 934 ft | 8 kts | 310° |
| 2026-04-18 23:28 | -39.31844 | 174.30675 | 937 ft | 0 kts | 354° |